Time;durP1;ratioP1;P1;durP2;ratioP2;P2;SDS_P1;SDS_P2;PMS_P1;PMS_P2;Temp;Humidity;BMP_temperature;BMP_pressure;BME280_temperature;BME280_humidity;BME280_pressure;Samples;Min_cycle;Max_cycle;Signal;HPM_P1;HPM_P2
2023/08/02 00:01:07;;;;;;;3.80;1.35;;;14.70;99.90;;;;;;5026807;28;19921;-59
2023/08/02 00:03:34;;;;;;;4.07;1.50;;;14.70;99.90;;;;;;5015647;28;20049;-58
2023/08/02 00:06:01;;;;;;;3.53;1.52;;;14.80;99.90;;;;;;5016617;28;20571;-59
2023/08/02 00:08:29;;;;;;;3.28;1.52;;;14.80;99.90;;;;;;5006768;28;20041;-57
2023/08/02 00:10:56;;;;;;;3.25;1.40;;;14.70;99.90;;;;;;5020752;28;20037;-59
2023/08/02 00:13:23;;;;;;;6.05;1.77;;;14.70;99.90;;;;;;5003948;28;20042;-57
2023/08/02 00:15:52;;;;;;;6.22;1.48;;;14.60;99.90;;;;;;5023708;28;20485;-58
2023/08/02 00:18:19;;;;;;;4.30;1.45;;;14.60;99.90;;;;;;5026490;28;20053;-58
2023/08/02 00:20:47;;;;;;;4.70;1.52;;;14.50;99.90;;;;;;5030710;28;20045;-59
2023/08/02 00:23:14;;;;;;;6.55;1.58;;;14.50;99.90;;;;;;5010263;28;20048;-57
2023/08/02 00:25:41;;;;;;;5.40;1.30;;;14.50;99.90;;;;;;4997801;28;20069;-58
2023/08/02 00:28:07;;;;;;;1.98;1.38;;;14.50;99.90;;;;;;5013796;28;20488;-59
2023/08/02 00:30:43;;;;;;;4.30;1.85;;;14.50;99.90;;;;;;5019007;28;20479;-59
2023/08/02 00:33:10;;;;;;;1.98;1.30;;;14.50;99.90;;;;;;5020780;28;20076;-57
2023/08/02 00:35:43;;;;;;;2.38;1.40;;;14.40;99.90;;;;;;5011698;28;20038;-58
2023/08/02 00:38:10;;;;;;;3.25;1.50;;;14.50;99.90;;;;;;5016894;28;20141;-58
2023/08/02 00:40:37;;;;;;;2.80;1.40;;;14.40;99.90;;;;;;5018800;28;20386;-57
2023/08/02 00:43:04;;;;;;;2.83;1.80;;;14.40;99.90;;;;;;5019279;28;20041;-57
2023/08/02 00:45:31;;;;;;;3.67;1.70;;;14.40;99.90;;;;;;5025603;28;20470;-57
2023/08/02 00:47:59;;;;;;;2.92;1.60;;;14.30;99.90;;;;;;5014051;28;20099;-58
2023/08/02 00:50:29;;;;;;;3.90;1.35;;;14.30;99.90;;;;;;5020858;28;20049;-57
2023/08/02 00:52:56;;;;;;;3.35;1.73;;;14.20;99.90;;;;;;5022392;28;20104;-58
2023/08/02 00:55:23;;;;;;;4.32;1.65;;;14.10;99.90;;;;;;5016113;28;20050;-58
2023/08/02 00:57:50;;;;;;;2.17;1.27;;;14.10;99.90;;;;;;5027112;28;20034;-58
2023/08/02 01:00:17;;;;;;;;;;;14.10;99.90;;;;;;5032089;28;20033;-58
2023/08/02 01:02:44;;;;;;;3.55;1.52;;;14.10;99.90;;;;;;5016414;28;19924;-58
2023/08/02 01:05:12;;;;;;;3.97;1.55;;;14.10;99.90;;;;;;5027323;28;20406;-57
2023/08/02 01:07:51;;;;;;;3.63;1.85;;;14.00;99.90;;;;;;5024050;28;20092;-58
2023/08/02 01:10:29;;;;;;;;;;;14.00;99.90;;;;;;5027794;28;20046;-59
2023/08/02 01:12:57;;;;;;;5.00;1.67;;;14.00;99.90;;;;;;5007337;28;20012;-57
2023/08/02 01:15:26;;;;;;;4.43;1.80;;;14.00;99.90;;;;;;5019122;28;20050;-58
2023/08/02 01:17:55;;;;;;;3.85;1.48;;;13.90;99.90;;;;;;5025877;28;20128;-58
2023/08/02 01:20:22;;;;;;;2.15;1.52;;;13.80;99.90;;;;;;5016704;28;20080;-59
2023/08/02 01:22:48;;;;;;;2.13;1.60;;;13.80;99.90;;;;;;5028357;28;20046;-58
2023/08/02 01:25:15;;;;;;;5.75;1.90;;;13.70;99.90;;;;;;5019034;28;20102;-59
2023/08/02 01:27:56;;;;;;;6.70;1.88;;;13.70;99.90;;;;;;5026122;28;20125;-58
2023/08/02 01:30:27;;;;;;;5.63;1.58;;;13.60;99.90;;;;;;5016656;28;20049;-58
2023/08/02 01:32:54;;;;;;;3.40;1.75;;;13.60;99.90;;;;;;5021265;28;20042;-56
2023/08/02 01:35:21;;;;;;;4.00;1.77;;;13.60;99.90;;;;;;5039672;28;20152;-59
2023/08/02 01:37:49;;;;;;;3.65;1.60;;;13.60;99.90;;;;;;5005178;28;20063;-58
2023/08/02 01:40:16;;;;;;;2.90;1.83;;;13.50;99.90;;;;;;5009562;28;20042;-58
2023/08/02 01:42:42;;;;;;;4.85;1.70;;;13.50;99.90;;;;;;5011560;28;20583;-56
2023/08/02 01:45:23;;;;;;;3.05;1.30;;;13.50;99.90;;;;;;4998070;28;20050;-57
2023/08/02 01:47:51;;;;;;;4.35;1.83;;;13.50;99.90;;;;;;5015387;28;20037;-57
2023/08/02 01:50:18;;;;;;;4.20;1.20;;;13.50;99.90;;;;;;5019099;28;20045;-58
2023/08/02 01:52:48;;;;;;;7.53;1.70;;;13.50;99.90;;;;;;5021744;28;20047;-59
2023/08/02 01:55:19;;;;;;;5.40;1.48;;;13.50;99.90;;;;;;5013838;28;20121;-57
2023/08/02 01:57:47;;;;;;;7.03;1.30;;;13.40;99.90;;;;;;5023242;28;20047;-57
2023/08/02 02:00:13;;;;;;;2.20;1.33;;;13.50;99.90;;;;;;5018823;28;20144;-57
2023/08/02 02:02:43;;;;;;;3.42;1.45;;;13.50;99.90;;;;;;5015886;28;20069;-57
2023/08/02 02:05:09;;;;;;;6.55;1.30;;;13.50;99.90;;;;;;5012389;28;20050;-57
2023/08/02 02:07:36;;;;;;;2.40;1.63;;;13.50;99.90;;;;;;5027322;28;20060;-57
2023/08/02 02:10:03;;;;;;;2.50;1.35;;;13.40;99.90;;;;;;5032052;28;20124;-57
2023/08/02 02:12:30;;;;;;;4.65;1.92;;;13.40;99.90;;;;;;5018360;28;20058;-58
2023/08/02 02:14:57;;;;;;;2.03;1.30;;;13.40;99.90;;;;;;5024500;28;20049;-58
2023/08/02 02:17:23;;;;;;;2.30;1.23;;;13.40;99.90;;;;;;5016014;28;20046;-58
2023/08/02 02:19:50;;;;;;;4.35;1.45;;;13.40;99.90;;;;;;5020823;28;20069;-59
2023/08/02 02:22:17;;;;;;;2.50;1.50;;;13.40;99.90;;;;;;5017229;28;20789;-59
2023/08/02 02:24:45;;;;;;;3.35;1.75;;;13.30;99.90;;;;;;5015617;28;20033;-59
2023/08/02 02:27:11;;;;;;;5.35;1.60;;;13.30;99.90;;;;;;5019642;28;20040;-57
2023/08/02 02:29:38;;;;;;;3.15;1.45;;;13.30;99.90;;;;;;5011995;28;20052;-59
2023/08/02 02:32:05;;;;;;;6.68;1.25;;;13.40;99.90;;;;;;5024037;28;20052;-57
2023/08/02 02:34:33;;;;;;;4.65;1.60;;;13.30;99.90;;;;;;5009824;28;20053;-59
2023/08/02 02:37:00;;;;;;;2.53;1.73;;;13.30;99.90;;;;;;5019350;28;20076;-58
2023/08/02 02:39:27;;;;;;;4.72;1.48;;;13.30;99.90;;;;;;5027704;28;20037;-58
2023/08/02 02:41:54;;;;;;;4.25;1.42;;;13.40;99.90;;;;;;5025957;28;20087;-57
2023/08/02 02:44:21;;;;;;;1.77;1.33;;;13.30;99.90;;;;;;5012921;28;20033;-57
2023/08/02 02:46:47;;;;;;;2.42;1.65;;;13.40;99.90;;;;;;5020544;28;20038;-57
2023/08/02 02:49:14;;;;;;;4.05;1.40;;;13.40;99.90;;;;;;5032495;28;20073;-58
2023/08/02 02:51:41;;;;;;;4.82;1.45;;;13.40;99.90;;;;;;5026561;28;20060;-58
2023/08/02 02:54:08;;;;;;;2.08;1.40;;;13.40;99.90;;;;;;5018884;28;20050;-58
2023/08/02 02:56:35;;;;;;;5.15;1.67;;;13.40;99.90;;;;;;5009868;28;20499;-58
2023/08/02 02:59:02;;;;;;;3.47;1.58;;;13.40;99.90;;;;;;5028053;28;20046;-57
2023/08/02 03:01:28;;;;;;;3.17;1.50;;;13.30;99.90;;;;;;5011320;28;20045;-59
2023/08/02 03:03:55;;;;;;;3.65;1.40;;;13.30;99.90;;;;;;5020653;28;20495;-57
2023/08/02 03:06:22;;;;;;;2.80;1.40;;;13.20;99.90;;;;;;5015383;28;20402;-58
2023/08/02 03:08:49;;;;;;;4.88;1.55;;;13.20;99.90;;;;;;5023841;28;20056;-58
2023/08/02 03:11:15;;;;;;;3.45;1.50;;;13.20;99.90;;;;;;5017562;28;20046;-58
2023/08/02 03:13:43;;;;;;;6.15;1.63;;;13.30;99.90;;;;;;5023470;28;20045;-58
2023/08/02 03:16:10;;;;;;;4.85;1.40;;;13.30;99.90;;;;;;5018706;28;20067;-58
2023/08/02 03:18:37;;;;;;;6.63;1.30;;;13.30;99.90;;;;;;5019927;28;20048;-58
2023/08/02 03:21:04;;;;;;;3.63;1.73;;;13.30;99.90;;;;;;5011663;28;20053;-58
2023/08/02 03:23:33;;;;;;;2.13;1.50;;;13.20;99.90;;;;;;5031739;28;20057;-56
2023/08/02 03:26:00;;;;;;;3.05;1.20;;;13.20;99.90;;;;;;5019246;28;20505;-59
2023/08/02 03:28:27;;;;;;;2.28;1.40;;;13.20;99.90;;;;;;5023407;28;20048;-58
2023/08/02 03:30:54;;;;;;;3.55;1.38;;;13.10;99.90;;;;;;5015371;28;20057;-56
2023/08/02 03:33:21;;;;;;;6.18;1.30;;;13.10;99.90;;;;;;5019949;28;20049;-58
2023/08/02 03:35:48;;;;;;;7.10;1.70;;;13.10;99.90;;;;;;5005832;28;20065;-58
2023/08/02 03:38:15;;;;;;;7.47;1.75;;;13.10;99.90;;;;;;5025386;28;20053;-57
2023/08/02 03:40:43;;;;;;;3.13;1.13;;;13.10;99.90;;;;;;5023013;28;20046;-57
2023/08/02 03:43:10;;;;;;;1.95;1.40;;;13.00;99.90;;;;;;5013190;28;20034;-57
2023/08/02 03:45:37;;;;;;;4.57;1.30;;;13.10;99.90;;;;;;5011661;28;20038;-57
2023/08/02 03:48:04;;;;;;;2.72;1.80;;;13.00;99.90;;;;;;5013694;28;20046;-57
2023/08/02 03:50:33;;;;;;;5.53;1.40;;;13.00;99.90;;;;;;5012505;28;20411;-58
2023/08/02 03:53:00;;;;;;;4.38;1.85;;;12.90;99.90;;;;;;5021740;28;20418;-58
2023/08/02 03:55:26;;;;;;;4.78;1.55;;;12.90;99.90;;;;;;5004363;28;20048;-59
2023/08/02 03:57:53;;;;;;;3.30;1.40;;;12.90;99.90;;;;;;5025485;28;20056;-58
2023/08/02 04:00:20;;;;;;;3.50;1.73;;;12.80;99.90;;;;;;5016928;28;20047;-59
2023/08/02 04:02:47;;;;;;;3.72;1.73;;;12.80;99.90;;;;;;5020337;28;20082;-58
2023/08/02 04:05:14;;;;;;;2.40;1.30;;;12.80;99.90;;;;;;5015432;28;20042;-57
2023/08/02 04:07:41;;;;;;;2.55;1.75;;;12.80;99.90;;;;;;5016368;28;20038;-59
2023/08/02 04:10:08;;;;;;;4.55;1.60;;;12.80;99.90;;;;;;5031472;28;20060;-59
2023/08/02 04:12:34;;;;;;;3.38;1.30;;;12.80;99.90;;;;;;5026324;28;20050;-58
2023/08/02 04:15:03;;;;;;;5.70;1.40;;;12.80;99.90;;;;;;5030847;28;20037;-58
2023/08/02 04:17:29;;;;;;;3.58;1.58;;;12.90;99.90;;;;;;5018498;28;20533;-59
2023/08/02 04:19:58;;;;;;;2.08;1.45;;;12.90;99.90;;;;;;5010971;28;20045;-59
2023/08/02 04:22:25;;;;;;;5.55;1.40;;;12.80;99.90;;;;;;5025557;28;20053;-56
2023/08/02 04:24:52;;;;;;;5.20;1.55;;;12.90;99.90;;;;;;5019719;28;20048;-58
2023/08/02 04:27:18;;;;;;;5.55;1.33;;;12.90;99.90;;;;;;5004736;28;20053;-57
2023/08/02 04:29:45;;;;;;;5.10;1.80;;;12.90;99.90;;;;;;5010427;28;20491;-57
2023/08/02 04:32:12;;;;;;;2.95;1.27;;;13.00;99.90;;;;;;5031151;28;20046;-54
2023/08/02 04:34:39;;;;;;;4.30;1.42;;;13.00;99.90;;;;;;5027049;28;20077;-56
2023/08/02 04:37:05;;;;;;;3.58;1.55;;;13.00;99.90;;;;;;5005162;28;20482;-58
2023/08/02 04:39:32;;;;;;;3.10;1.50;;;13.00;99.90;;;;;;5021126;28;20486;-58
2023/08/02 04:42:02;;;;;;;3.40;1.45;;;13.00;99.90;;;;;;5025186;28;20050;-57
2023/08/02 04:44:29;;;;;;;4.70;1.63;;;13.10;99.90;;;;;;5017683;28;20065;-56
2023/08/02 04:46:56;;;;;;;2.67;1.17;;;13.10;99.90;;;;;;5017177;28;20045;-57
2023/08/02 04:49:23;;;;;;;4.03;1.17;;;13.10;99.90;;;;;;5021752;28;20045;-54
2023/08/02 04:51:49;;;;;;;4.32;1.30;;;13.10;99.90;;;;;;5024167;28;20062;-54
2023/08/02 04:54:16;;;;;;;3.42;1.35;;;13.20;99.90;;;;;;5018898;28;20037;-57
2023/08/02 04:56:43;;;;;;;1.83;1.27;;;13.20;99.90;;;;;;5015970;28;20034;-56
2023/08/02 04:59:10;;;;;;;3.72;1.30;;;13.20;99.90;;;;;;5030523;28;20034;-58
2023/08/02 05:01:37;;;;;;;2.70;1.30;;;13.10;99.90;;;;;;5016095;28;20042;-54
2023/08/02 05:04:07;;;;;;;2.40;1.20;;;13.00;99.90;;;;;;5017141;28;20497;-57
2023/08/02 05:06:35;;;;;;;3.58;1.38;;;13.00;99.90;;;;;;5029039;28;20042;-57
2023/08/02 05:09:05;;;;;;;;;;;13.00;99.90;;;;;;5026671;28;20053;-59
2023/08/02 05:11:32;;;;;;;5.78;1.70;;;13.10;99.90;;;;;;5011778;28;19927;-57
2023/08/02 05:13:58;;;;;;;4.35;1.48;;;13.20;99.90;;;;;;5013572;28;20056;-59
2023/08/02 05:16:26;;;;;;;2.65;1.50;;;13.20;99.90;;;;;;5018445;28;20045;-58
2023/08/02 05:18:53;;;;;;;1.58;1.20;;;13.20;99.90;;;;;;5027658;28;20042;-57
2023/08/02 05:21:20;;;;;;;2.17;1.30;;;13.20;99.90;;;;;;5032239;28;20464;-58
2023/08/02 05:23:46;;;;;;;2.95;1.40;;;13.20;99.90;;;;;;5025221;28;20461;-59
2023/08/02 05:26:13;;;;;;;2.90;1.60;;;13.30;99.90;;;;;;5008984;28;20042;-61
2023/08/02 05:28:40;;;;;;;2.40;1.20;;;13.40;99.90;;;;;;5013344;28;20029;-60
2023/08/02 05:31:11;;;;;;;5.40;1.50;;;13.60;99.90;;;;;;5017057;28;20052;-60
2023/08/02 05:33:38;;;;;;;3.13;1.27;;;13.70;99.90;;;;;;5016710;28;20467;-60
2023/08/02 05:36:06;;;;;;;2.83;1.65;;;13.70;99.90;;;;;;5010352;28;20058;-59
2023/08/02 05:38:38;;;;;;;5.10;1.58;;;13.80;99.90;;;;;;5016792;28;20046;-60
2023/08/02 05:41:04;;;;;;;3.13;1.50;;;13.90;99.90;;;;;;5023124;28;20132;-60
2023/08/02 05:43:31;;;;;;;2.40;1.45;;;13.80;99.90;;;;;;5025282;28;20041;-60
2023/08/02 05:45:58;;;;;;;4.88;1.60;;;13.70;99.90;;;;;;5009210;28;20450;-61
2023/08/02 05:48:25;;;;;;;4.68;1.73;;;13.80;99.90;;;;;;5025210;28;20042;-60
2023/08/02 05:50:52;;;;;;;3.80;1.60;;;13.90;99.90;;;;;;5024760;28;20076;-60
2023/08/02 05:53:19;;;;;;;2.65;1.50;;;14.40;99.90;;;;;;5023218;28;20051;-60
2023/08/02 05:55:45;;;;;;;4.38;1.25;;;14.10;99.90;;;;;;5020425;28;20149;-59
2023/08/02 05:58:12;;;;;;;4.63;1.48;;;14.30;99.90;;;;;;5028736;28;20388;-60
2023/08/02 06:00:39;;;;;;;8.55;1.33;;;14.40;99.90;;;;;;5019453;28;20033;-60
2023/08/02 06:03:06;;;;;;;2.45;1.65;;;14.40;99.90;;;;;;5026928;28;20518;-61
2023/08/02 06:05:33;;;;;;;5.47;1.70;;;14.50;99.90;;;;;;5017805;28;20038;-60
2023/08/02 06:07:59;;;;;;;2.42;1.67;;;14.70;99.90;;;;;;5016504;28;20053;-59
2023/08/02 06:10:26;;;;;;;2.97;1.70;;;14.80;99.90;;;;;;5016918;28;20038;-60
2023/08/02 06:12:53;;;;;;;6.65;1.60;;;14.90;99.90;;;;;;5025738;28;20049;-60
2023/08/02 06:15:20;;;;;;;2.85;1.50;;;14.90;99.90;;;;;;5020240;28;20044;-60
2023/08/02 06:17:46;;;;;;;3.33;1.80;;;15.00;99.90;;;;;;5026776;28;20045;-60
2023/08/02 06:20:13;;;;;;;2.15;1.88;;;15.00;99.90;;;;;;5023476;28;20049;-61
2023/08/02 06:22:41;;;;;;;2.08;1.60;;;15.00;99.90;;;;;;5017477;28;20048;-59
2023/08/02 06:25:08;;;;;;;;;;;15.10;99.90;;;;;;5017646;28;20064;-60
2023/08/02 06:27:35;;;;;;;2.43;1.70;;;15.10;99.90;;;;;;5023228;28;19925;-60
2023/08/02 06:30:02;;;;;;;5.50;2.13;;;15.20;99.90;;;;;;5013053;28;20777;-59
2023/08/02 06:32:29;;;;;;;3.13;2.17;;;15.30;99.90;;;;;;5003851;28;20045;-61
2023/08/02 06:34:56;;;;;;;4.85;1.88;;;15.30;99.90;;;;;;5021187;28;20144;-60
2023/08/02 06:37:23;;;;;;;4.07;2.38;;;15.40;99.90;;;;;;5011776;28;20046;-60
2023/08/02 06:39:49;;;;;;;3.72;2.05;;;15.40;99.90;;;;;;5024390;28;20043;-61
2023/08/02 06:42:16;;;;;;;4.30;2.38;;;15.40;99.90;;;;;;5021600;28;20413;-61
2023/08/02 06:44:43;;;;;;;4.82;2.13;;;15.50;99.90;;;;;;5026329;28;20465;-60
2023/08/02 06:47:10;;;;;;;3.05;2.25;;;15.50;99.90;;;;;;5005519;28;20045;-60
2023/08/02 06:49:37;;;;;;;7.30;1.80;;;15.60;99.90;;;;;;5012125;28;20033;-61
2023/08/02 06:52:04;;;;;;;5.18;2.20;;;15.70;99.90;;;;;;5006357;28;20050;-61
2023/08/02 06:54:31;;;;;;;;;;;15.80;99.90;;;;;;5016941;28;20038;-60
2023/08/02 06:56:57;;;;;;;4.25;2.45;;;15.90;99.90;;;;;;5027586;28;19931;-60
2023/08/02 06:59:24;;;;;;;7.55;2.28;;;15.90;99.90;;;;;;5023178;28;20046;-60
2023/08/02 07:01:52;;;;;;;2.45;2.10;;;16.00;99.90;;;;;;5007220;28;20038;-60
2023/08/02 07:04:19;;;;;;;4.55;1.85;;;16.10;99.90;;;;;;5023475;28;20052;-60
2023/08/02 07:06:46;;;;;;;3.60;2.20;;;16.10;99.90;;;;;;5022764;28;20057;-60
2023/08/02 07:09:14;;;;;;;6.38;2.35;;;16.10;99.90;;;;;;5027292;28;20528;-60
2023/08/02 07:11:41;;;;;;;6.00;2.28;;;16.10;99.90;;;;;;5022337;28;20424;-60
2023/08/02 07:14:08;;;;;;;4.80;2.90;;;15.90;99.90;;;;;;5030941;28;20064;-60
2023/08/02 07:16:35;;;;;;;6.65;2.47;;;15.80;99.90;;;;;;5010864;28;20050;-60
2023/08/02 07:19:02;;;;;;;9.73;3.10;;;15.60;99.90;;;;;;5027673;28;20128;-60
2023/08/02 07:21:30;;;;;;;8.38;3.20;;;15.50;99.90;;;;;;5007210;28;20092;-60
2023/08/02 07:23:57;;;;;;;10.65;3.63;;;15.50;99.90;;;;;;5027414;28;20041;-60
2023/08/02 07:26:24;;;;;;;8.23;3.00;;;15.50;99.90;;;;;;5017767;28;20422;-60
2023/08/02 07:28:50;;;;;;;9.40;2.90;;;15.50;99.90;;;;;;5030676;28;20041;-61
2023/08/02 07:31:17;;;;;;;8.40;2.72;;;15.60;99.90;;;;;;5012609;28;20045;-60
2023/08/02 07:33:45;;;;;;;6.88;3.13;;;15.60;99.90;;;;;;5030747;28;20069;-60
2023/08/02 07:36:17;;;;;;;6.63;2.50;;;15.70;99.90;;;;;;5022896;28;20045;-59
2023/08/02 07:38:44;;;;;;;7.05;2.40;;;15.80;99.90;;;;;;5019922;28;20415;-61
2023/08/02 07:41:11;;;;;;;5.78;2.33;;;15.90;99.90;;;;;;5009458;28;20469;-59
2023/08/02 07:43:38;;;;;;;5.60;2.70;;;16.10;99.90;;;;;;5023996;28;20057;-60
2023/08/02 07:46:14;;;;;;;7.80;2.65;;;16.10;99.90;;;;;;5019915;28;20050;-60
2023/08/02 07:48:41;;;;;;;3.97;2.15;;;16.20;99.90;;;;;;5018010;28;20124;-61
2023/08/02 07:51:07;;;;;;;13.60;3.17;;;16.30;99.90;;;;;;5012009;28;20043;-61
2023/08/02 07:53:34;;;;;;;9.60;2.42;;;16.50;99.90;;;;;;5012725;28;20041;-61
2023/08/02 07:56:04;;;;;;;8.93;2.88;;;16.70;99.90;;;;;;5027258;28;20041;-61
2023/08/02 07:58:30;;;;;;;;;;;17.10;99.90;;;;;;5024366;28;20052;-61
2023/08/02 08:01:04;;;;;;;5.43;3.00;;;17.30;99.90;;;;;;5003418;28;20405;-61
2023/08/02 08:03:31;;;;;;;7.90;2.92;;;17.30;99.90;;;;;;5016349;28;20114;-59
2023/08/02 08:05:58;;;;;;;4.03;2.50;;;17.20;99.90;;;;;;5010626;28;20034;-60
2023/08/02 08:08:25;;;;;;;4.30;2.63;;;17.20;99.90;;;;;;5006357;28;20407;-61
2023/08/02 08:10:52;;;;;;;6.93;3.13;;;17.30;99.90;;;;;;5021650;28;20501;-61
2023/08/02 08:13:18;;;;;;;;;;;17.30;99.90;;;;;;5022959;28;20045;-61
2023/08/02 08:15:46;;;;;;;5.63;2.65;;;17.30;99.90;;;;;;5025574;28;19928;-60
2023/08/02 08:18:12;;;;;;;;;;;17.30;99.90;;;;;;5005333;28;20046;-60
2023/08/02 08:20:39;;;;;;;4.85;2.83;;;17.40;99.90;;;;;;5023948;28;20378;-60
2023/08/02 08:23:06;;;;;;;4.60;2.80;;;17.40;99.90;;;;;;5021461;28;20054;-60
2023/08/02 08:25:32;;;;;;;5.07;2.78;;;17.40;99.90;;;;;;5030695;28;20087;-61
2023/08/02 08:27:59;;;;;;;7.03;2.80;;;17.30;99.90;;;;;;5006575;28;20042;-60
2023/08/02 08:30:26;;;;;;;4.55;2.95;;;17.30;99.90;;;;;;5013808;28;20052;-61
2023/08/02 08:32:53;;;;;;;3.85;2.40;;;17.30;99.90;;;;;;5017535;28;20038;-61
2023/08/02 08:35:20;;;;;;;9.55;2.35;;;17.30;99.90;;;;;;5012812;28;20072;-61
2023/08/02 08:37:49;;;;;;;4.10;2.28;;;17.50;99.90;;;;;;5024133;28;20589;-60
2023/08/02 08:40:20;;;;;;;2.83;1.75;;;17.50;99.90;;;;;;5009198;28;20046;-60
2023/08/02 08:42:51;;;;;;;5.18;2.03;;;17.50;99.90;;;;;;5017687;28;20128;-60
2023/08/02 08:45:20;;;;;;;3.83;2.33;;;17.40;99.90;;;;;;5028599;28;20084;-60
2023/08/02 08:47:48;;;;;;;3.58;2.40;;;17.40;99.90;;;;;;5010297;28;20050;-60
2023/08/02 08:50:15;;;;;;;5.18;2.42;;;17.40;99.90;;;;;;5016123;28;20042;-59
2023/08/02 08:52:46;;;;;;;2.67;1.90;;;17.60;99.90;;;;;;5014923;28;20037;-61
2023/08/02 08:55:14;;;;;;;4.43;2.47;;;17.60;99.90;;;;;;5021392;28;20438;-61
2023/08/02 08:57:43;;;;;;;4.43;2.20;;;17.60;99.90;;;;;;5018692;28;20096;-61
2023/08/02 09:00:13;;;;;;;2.75;2.05;;;17.60;99.90;;;;;;5016720;28;20073;-61
2023/08/02 09:02:42;;;;;;;5.93;2.60;;;17.70;99.90;;;;;;5020058;28;20462;-61
2023/08/02 09:05:09;;;;;;;2.55;2.25;;;17.50;99.90;;;;;;5004964;28;20491;-60
2023/08/02 09:07:36;;;;;;;3.60;2.55;;;17.40;99.90;;;;;;5012284;28;20037;-61
2023/08/02 09:10:03;;;;;;;3.20;2.22;;;17.30;99.90;;;;;;5025463;28;20045;-59
2023/08/02 09:12:45;;;;;;;3.63;2.50;;;17.20;99.90;;;;;;5016420;28;20042;-60
2023/08/02 09:15:14;;;;;;;6.47;3.15;;;17.10;99.90;;;;;;5024716;28;20053;-59
2023/08/02 09:17:59;;;;;;;5.38;3.15;;;17.00;99.90;;;;;;5022171;28;20033;-61
2023/08/02 09:20:27;;;;;;;3.42;2.67;;;17.00;99.90;;;;;;5027125;28;20038;-61
2023/08/02 09:22:53;;;;;;;;;;;16.90;99.90;;;;;;5015579;28;20042;-60
2023/08/02 09:25:23;;;;;;;5.40;2.78;;;16.90;99.90;;;;;;5016255;28;19921;-60
2023/08/02 09:27:51;;;;;;;4.63;2.92;;;16.70;99.90;;;;;;5027303;28;20041;-61
2023/08/02 09:30:30;;;;;;;5.55;2.72;;;16.80;99.90;;;;;;5026369;28;20042;-60
2023/08/02 09:33:08;;;;;;;3.55;2.33;;;16.90;99.90;;;;;;5011177;28;20049;-61
2023/08/02 09:35:48;;;;;;;5.60;2.60;;;16.90;99.90;;;;;;5009433;28;20536;-59
2023/08/02 09:38:16;;;;;;;4.53;2.88;;;17.10;99.90;;;;;;5018530;28;20042;-61
2023/08/02 09:40:47;;;;;;;6.15;2.80;;;17.10;99.90;;;;;;5012109;28;20038;-60
2023/08/02 09:43:34;;;;;;;5.32;3.25;;;17.20;99.90;;;;;;5008338;28;20037;-60
2023/08/02 09:46:01;;;;;;;5.32;3.17;;;17.20;99.90;;;;;;5010409;28;20053;-60
2023/08/02 09:48:35;;;;;;;5.90;3.45;;;17.10;99.90;;;;;;5023113;28;20080;-57
2023/08/02 09:51:03;;;;;;;4.97;3.47;;;17.10;99.90;;;;;;5019927;28;20393;-61
2023/08/02 09:53:31;;;;;;;5.55;3.38;;;17.30;99.90;;;;;;5029403;28;20049;-61
2023/08/02 09:56:00;;;;;;;5.88;3.42;;;17.30;99.90;;;;;;5018875;28;20048;-61
2023/08/02 09:58:30;;;;;;;7.93;4.25;;;17.30;99.90;;;;;;5029512;28;20144;-59
2023/08/02 10:01:00;;;;;;;6.60;3.85;;;17.30;99.90;;;;;;5008145;28;20058;-60
2023/08/02 10:03:28;;;;;;;6.22;3.65;;;17.50;99.90;;;;;;5026669;28;20492;-60
2023/08/02 10:06:01;;;;;;;3.90;3.03;;;17.60;99.90;;;;;;5019254;28;20045;-60
2023/08/02 10:08:31;;;;;;;7.65;3.50;;;17.50;99.90;;;;;;5025349;28;20138;-61
2023/08/02 10:11:00;;;;;;;4.93;3.10;;;17.40;99.90;;;;;;5014301;28;20124;-61
2023/08/02 10:13:31;;;;;;;4.95;3.08;;;17.40;99.90;;;;;;5022969;28;20046;-61
2023/08/02 10:15:58;;;;;;;5.47;3.58;;;17.40;99.90;;;;;;5026614;28;20050;-61
2023/08/02 10:18:27;;;;;;;4.80;3.10;;;17.50;99.90;;;;;;5017363;28;20053;-59
2023/08/02 10:20:55;;;;;;;7.07;2.92;;;17.60;99.90;;;;;;5020704;28;20182;-61
2023/08/02 10:23:22;;;;;;;5.97;3.05;;;17.70;99.90;;;;;;5020963;28;20050;-61
2023/08/02 10:25:49;;;;;;;5.90;2.70;;;18.00;99.90;;;;;;5027582;28;20038;-61
2023/08/02 10:28:17;;;;;;;5.47;2.75;;;18.30;99.90;;;;;;5017904;28;20034;-61
2023/08/02 10:30:43;;;;;;;;;;;18.60;99.90;;;;;;5007071;28;20038;-60
2023/08/02 10:33:12;;;;;;;3.88;2.67;;;18.90;99.90;;;;;;5013174;28;19928;-60
2023/08/02 10:36:02;;;;;;;3.58;2.60;;;18.90;99.90;;;;;;5004842;28;20383;-60
2023/08/02 10:38:44;;;;;;;3.72;2.45;;;19.00;99.90;;;;;;5007096;28;20542;-60
2023/08/02 10:41:14;;;;;;;4.93;2.80;;;19.20;99.90;;;;;;5011186;28;20042;-61
2023/08/02 10:43:54;;;;;;;2.78;2.20;;;19.50;99.90;;;;;;5014152;28;20045;-61
2023/08/02 10:46:28;;;;;;;2.58;1.83;;;19.90;99.90;;;;;;5021462;28;20429;-61
2023/08/02 10:49:16;;;;;;;2.72;2.22;;;20.00;99.90;;;;;;5007113;28;20046;-60
2023/08/02 10:51:45;;;;;;;3.50;2.55;;;20.10;99.90;;;;;;5009356;28;20038;-60
2023/08/02 10:54:22;;;;;;;3.42;2.53;;;20.10;99.90;;;;;;5028017;28;20038;-61
2023/08/02 10:56:52;;;;;;;3.73;2.33;;;20.50;99.90;;;;;;5013040;28;20034;-61
2023/08/02 10:59:25;;;;;;;4.93;2.70;;;21.00;99.90;;;;;;5011370;28;20053;-61
2023/08/02 11:01:55;;;;;;;4.57;2.80;;;21.50;99.90;;;;;;5020852;28;20038;-61
2023/08/02 11:04:23;;;;;;;3.08;2.35;;;21.90;99.90;;;;;;5020009;28;20049;-60
2023/08/02 11:06:50;;;;;;;3.30;2.63;;;21.70;99.90;;;;;;5019961;28;20046;-60
2023/08/02 11:09:18;;;;;;;5.90;2.60;;;21.30;99.90;;;;;;5013337;28;20045;-61
2023/08/02 11:11:44;;;;;;;3.83;2.42;;;21.20;99.90;;;;;;5022516;28;20486;-59
2023/08/02 11:14:25;;;;;;;3.88;2.47;;;21.10;99.90;;;;;;5031179;28;20099;-61
2023/08/02 11:16:53;;;;;;;6.75;2.58;;;21.20;99.90;;;;;;5026782;28;20041;-61
2023/08/02 11:19:22;;;;;;;3.97;3.25;;;21.20;99.90;;;;;;5014312;28;20475;-60
2023/08/02 11:21:53;;;;;;;3.17;2.05;;;21.20;99.90;;;;;;5022853;28;20121;-61
2023/08/02 11:24:20;;;;;;;4.28;2.63;;;21.10;99.90;;;;;;5026598;28;20091;-60
2023/08/02 11:26:56;;;;;;;3.65;2.28;;;21.40;99.90;;;;;;5012427;28;20050;-61
2023/08/02 11:29:24;;;;;;;2.65;2.22;;;21.70;99.90;;;;;;5027707;28;20049;-61
2023/08/02 11:31:53;;;;;;;4.35;2.05;;;21.90;99.90;;;;;;5023559;28;20085;-60
2023/08/02 11:34:27;;;;;;;5.65;2.05;;;22.00;99.90;;;;;;5021182;28;20503;-61
2023/08/02 11:36:55;;;;;;;3.08;2.05;;;22.20;99.90;;;;;;5013938;28;20048;-60
2023/08/02 11:39:21;;;;;;;2.20;1.83;;;22.40;99.90;;;;;;5021531;28;20395;-61
2023/08/02 11:42:04;;;;;;;2.53;1.90;;;22.20;99.90;;;;;;5023008;28;20116;-61
2023/08/02 11:44:31;;;;;;;2.17;1.80;;;22.00;99.90;;;;;;5002199;28;20061;-60
2023/08/02 11:47:00;;;;;;;2.58;2.30;;;22.30;99.90;;;;;;5007141;28;20057;-60
2023/08/02 11:49:26;;;;;;;3.08;1.95;;;22.70;99.90;;;;;;5020055;28;20049;-60
2023/08/02 11:51:53;;;;;;;2.40;2.00;;;22.50;99.90;;;;;;5021461;28;20045;-60
2023/08/02 11:54:20;;;;;;;2.53;1.92;;;22.90;99.90;;;;;;5012081;28;20041;-61
2023/08/02 11:56:47;;;;;;;4.85;2.03;;;23.30;99.90;;;;;;5014769;28;20044;-60
2023/08/02 11:59:14;;;;;;;;;;;23.50;99.90;;;;;;5023062;28;20046;-61
2023/08/02 12:01:43;;;;;;;2.83;1.70;;;23.40;99.90;;;;;;5021176;28;19921;-59
2023/08/02 12:04:10;;;;;;;2.38;2.13;;;23.60;99.90;;;;;;5020173;28;20059;-60
2023/08/02 12:06:52;;;;;;;2.30;1.60;;;23.70;99.90;;;;;;5030445;28;20065;-59
2023/08/02 12:09:38;;;;;;;2.00;1.80;;;23.70;99.90;;;;;;5018629;28;20046;-60
2023/08/02 12:12:05;;;;;;;5.57;2.00;;;23.60;99.90;;;;;;5017209;28;20049;-60
2023/08/02 12:14:32;;;;;;;;;;;23.40;99.90;;;;;;5015816;28;20074;-61
2023/08/02 12:17:03;;;;;;;6.72;2.08;;;23.30;99.90;;;;;;5029611;28;19921;-61
2023/08/02 12:19:40;;;;;;;1.98;1.77;;;23.30;99.90;;;;;;5007453;28;20390;-60
2023/08/02 12:22:08;;;;;;;2.70;1.83;;;23.40;99.90;;;;;;5024240;28;20132;-61
2023/08/02 12:24:35;;;;;;;;;;;23.40;99.90;;;;;;5020400;28;20048;-61
2023/08/02 12:27:15;;;;;;;3.77;2.27;;;23.60;99.90;;;;;;5029881;28;19928;-60
2023/08/02 12:29:43;;;;;;;3.20;2.38;;;23.70;99.90;;;;;;5013954;28;20050;-61
2023/08/02 12:32:21;;;;;;;6.60;2.38;;;23.90;99.90;;;;;;5024389;28;20052;-61
2023/08/02 12:34:48;;;;;;;2.58;2.03;;;23.90;99.90;;;;;;5030089;28;20041;-61
2023/08/02 12:37:23;;;;;;;3.22;1.83;;;23.80;99.90;;;;;;5019382;28;20065;-61
2023/08/02 12:39:50;;;;;;;1.98;1.77;;;23.70;99.90;;;;;;5030651;28;20041;-61
2023/08/02 12:42:17;;;;;;;3.17;1.60;;;24.00;99.90;;;;;;5000435;28;20050;-60
2023/08/02 12:44:44;;;;;;;5.35;2.10;;;24.10;99.90;;;;;;5021042;28;20053;-60
2023/08/02 12:47:11;;;;;;;4.22;1.88;;;24.20;99.90;;;;;;5017633;28;20048;-61
2023/08/02 12:49:37;;;;;;;2.13;1.92;;;24.40;99.90;;;;;;5009516;28;20046;-61
2023/08/02 12:52:05;;;;;;;2.63;1.77;;;24.50;99.90;;;;;;5021367;28;20042;-61
2023/08/02 12:54:32;;;;;;;3.80;1.83;;;24.60;99.90;;;;;;5033089;28;20046;-61
2023/08/02 12:56:59;;;;;;;4.13;1.60;;;24.60;99.90;;;;;;5010698;28;20108;-60